Time;durP1;ratioP1;P1;durP2;ratioP2;P2;SDS_P1;SDS_P2;PMS_P1;PMS_P2;Temp;Humidity;BMP_temperature;BMP_pressure;BME280_temperature;BME280_humidity;BME280_pressure;Samples;Min_cycle;Max_cycle;Signal;HPM_P1;HPM_P2
2021/05/17 05:40:22;;;;;;;0.20;0.20;;;;;;;10.98;65.84;95661.09;5885962;23;20047;-80
2021/05/17 05:43:09;;;;;;;1.38;0.32;;;;;;;11.01;65.76;95664.09;4970977;28;20761;-82
2021/05/17 05:48:52;;;;;;;1.58;0.30;;;;;;;11.05;64.66;95678.31;5214899;23;20031;-83
2021/05/17 06:33:32;;;;;;;1.02;0.20;;;;;;;11.31;61.16;95707.94;5117053;23;20042;-83
2021/05/17 06:41:54;;;;;;;1.15;0.20;;;;;;;11.44;60.71;95705.25;4985748;28;20058;-83
2021/05/17 06:50:23;;;;;;;0.55;0.10;;;;;;;11.68;59.15;95718.59;5010659;28;20111;-82
2021/05/17 06:53:07;;;;;;;1.95;0.30;;;;;;;11.70;59.38;95716.59;5131791;23;20105;-82
2021/05/17 09:38:55;;;;;;;0.80;0.50;;;;;;;14.13;53.08;95798.38;4931316;29;20057;-84
2021/05/17 09:41:48;;;;;;;2.47;0.40;;;;;;;14.11;52.33;95799.63;4923706;29;20040;-83
2021/05/17 09:44:17;;;;;;;1.52;0.20;;;;;;;14.09;52.86;95785.94;4890705;29;20041;-83
2021/05/17 09:47:43;;;;;;;2.05;0.10;;;;;;;14.13;51.83;95797.59;4924927;29;20044;-84
2021/05/17 09:50:22;;;;;;;1.58;0.20;;;;;;;14.15;52.15;95803.41;4935842;29;20032;-83
2021/05/17 09:52:49;;;;;;;1.70;0.40;;;;;;;14.12;52.36;95795.97;4942801;29;20095;-83
2021/05/17 09:59:59;;;;;;;3.50;0.47;;;;;;;14.14;51.76;95807.03;4935069;29;20039;-83
2021/05/17 10:02:27;;;;;;;;;;;;;;;14.19;51.84;95801.91;4923727;29;20073;-83
2021/05/17 10:05:39;;;;;;;3.13;0.30;;;;;;;14.20;52.34;95795.66;4922118;29;19935;-83
2021/05/17 10:08:19;;;;;;;1.23;0.45;;;;;;;14.20;52.42;95785.97;4947912;28;20099;-82
2021/05/17 10:10:48;;;;;;;1.55;0.20;;;;;;;14.21;52.33;95787.56;4980925;28;20110;-83
2021/05/17 10:13:16;;;;;;;0.30;0.10;;;;;;;14.20;51.87;95803.53;4980686;28;20035;-83
2021/05/17 10:15:49;;;;;;;1.08;0.20;;;;;;;14.14;53.45;95810.44;4980542;28;20032;-85
2021/05/17 10:18:36;;;;;;;1.33;0.20;;;;;;;14.01;54.79;95800.97;4981277;28;20043;-82
2021/05/17 10:21:06;;;;;;;0.70;0.10;;;;;;;13.94;55.60;95799.44;4981313;28;20102;-82
2021/05/17 10:26:40;;;;;;;0.73;0.10;;;;;;;14.04;57.77;95788.41;4981209;28;20035;-84
2021/05/17 10:29:09;;;;;;;1.20;0.82;;;;;;;14.16;56.56;95786.63;4981410;28;20035;-84
2021/05/17 10:31:52;;;;;;;1.13;0.10;;;;;;;14.28;56.47;95787.47;4991017;28;20049;-82
2021/05/17 10:34:20;;;;;;;0.98;0.20;;;;;;;14.38;56.73;95785.09;4999661;28;20038;-84
2021/05/17 10:36:51;;;;;;;0.45;0.25;;;;;;;14.53;55.31;95786.47;4999139;28;20114;-84
2021/05/17 10:39:21;;;;;;;0.75;0.25;;;;;;;14.58;54.61;95778.75;4999558;28;20043;-82
2021/05/17 10:42:12;;;;;;;0.25;0.15;;;;;;;14.58;54.06;95786.63;4991734;28;20062;-84
2021/05/17 10:48:21;;;;;;;0.00;0.00;;;;;;;14.56;53.47;95781.63;4990456;28;20099;-83
2021/05/17 10:50:52;;;;;;;0.52;0.20;;;;;;;14.51;53.39;95799.03;4997779;28;20106;-83
2021/05/17 10:57:18;;;;;;;7.22;3.03;;;;;;;14.28;54.98;95810.25;4990096;28;20137;-83
2021/05/17 11:03:11;;;;;;;2.47;1.77;;;;;;;14.00;57.87;95820.34;4987502;28;20155;-82
2021/05/17 11:05:45;;;;;;;2.85;1.70;;;;;;;13.93;58.43;95817.00;4999991;28;20030;-82
2021/05/17 11:08:14;;;;;;;3.50;1.75;;;;;;;13.98;58.93;95805.84;5000022;28;20039;-82
2021/05/17 11:10:45;;;;;;;0.50;0.30;;;;;;;14.11;59.70;95804.88;4999552;28;20066;-82
2021/05/17 11:13:15;;;;;;;4.05;0.22;;;;;;;14.26;60.05;95802.63;4999327;28;20037;-84
2021/05/17 11:16:08;;;;;;;1.08;0.13;;;;;;;14.45;59.88;95792.06;4998797;28;20037;-84
2021/05/17 11:18:51;;;;;;;2.05;0.47;;;;;;;14.64;59.55;95790.97;4998466;28;20051;-84
2021/05/17 11:21:27;;;;;;;0.55;0.20;;;;;;;14.75;58.89;95787.56;4998576;28;20039;-84
2021/05/17 11:24:00;;;;;;;0.45;0.20;;;;;;;14.89;58.17;95784.69;4998442;28;20053;-84
2021/05/17 11:26:33;;;;;;;0.05;0.00;;;;;;;14.94;55.83;95780.38;4998669;28;20107;-85
2021/05/17 11:29:06;;;;;;;0.10;0.10;;;;;;;15.00;56.56;95784.72;4994292;28;20064;-85
2021/05/17 11:31:43;;;;;;;0.70;0.00;;;;;;;15.09;55.48;95779.91;4990774;28;20146;-86
2021/05/17 11:34:26;;;;;;;0.52;0.17;;;;;;;15.16;54.74;95788.47;4976619;28;20087;-85
2021/05/17 11:37:16;;;;;;;0.93;0.10;;;;;;;15.19;53.78;95790.63;4969109;28;20105;-86
2021/05/17 11:39:45;;;;;;;0.30;0.10;;;;;;;15.24;54.44;95792.59;4975512;28;20105;-85
2021/05/17 23:44:52;;;;;;;0.20;0.10;;;;;;;10.41;67.90;96239.69;5285695;23;20083;-82
2021/05/17 23:47:20;;;;;;;1.95;0.20;;;;;;;10.38;67.63;96234.81;5055404;23;20035;-81
2021/05/17 23:49:49;;;;;;;0.30;0.30;;;;;;;10.36;67.88;96234.19;4979911;28;20037;-84
2021/05/17 23:52:18;;;;;;;0.28;0.10;;;;;;;10.33;68.15;96242.41;4979863;28;20042;-80
